Nearby METAR Reports

 

KMRB - Martinsburg, West Virginia, USA
Distance from station: NNW 9mi, 14km
Updated: 11/18/2018 10:53pm
Mist, Partly cloudy
Mist, Partly cloudy
 Wind from calm
Wind: Calm
Temperature: 36°F , 2°C
Dew Point: 34°F , 1°C
Humidity: 93%
Barometer: 30.14 inHg , 1020.7 hPa
Summary: Mist
Clouds: Partly cloudy
Visibility: 3 miles , 5 km
Cloud details: Partly cloudy 6500 ft
2018/11/19 03:53 KMRB 190353Z AUTO 00000KT 3SM BR SCT065 02/01 A3014 RMK AO2 SLP210 T00170011
KOKV - Winchester Rgnl, Virginia, USA
Distance from station: SW 17mi, 28km
Updated: 11/18/2018 11:35pm
Clear
Clear
 Wind from SSW
Wind: SSW 5 mph , 7 km/h
Temperature: 37°F , 3°C
Wind Chill: 33°F , 1°C
Dew Point: 36°F , 2°C
Humidity: 93%
Barometer: 30.15 inHg , 1021 hPa
Clouds: Clear
Visibility: 7 miles , 11 km
2018/11/19 04:35 KOKV 190435Z AUTO 20004KT 7SM CLR 03/02 A3015 RMK AO2
 
KJYO - Leesburg/Godfrey, Virginia, USA
Distance from station: SE 23mi, 38km
Updated: 11/18/2018 11:35pm
Mist, Clear
Mist, Clear
 Wind from calm
Wind: Calm
Temperature: 37°F , 3°C
Dew Point: 37°F , 3°C
Humidity: 100%
Barometer: 30.18 inHg , 1022 hPa
Summary: Mist
Clouds: Clear
Visibility: 5 miles , 8 km
2018/11/19 04:35 KJYO 190435Z AUTO 00000KT 5SM BR CLR 03/03 A3018 RMK AO2
KFDK - Frederick, Maryland, USA
Distance from station: ENE 30mi, 48km
Updated: 11/18/2018 11:20pm
Mist, Clear
Mist, Clear
 Wind from calm
Wind: Calm
Temperature: 37°F , 3°C
Dew Point: 37°F , 3°C
Humidity: 100%
Barometer: 30.20 inHg , 1022.7 hPa
Summary: Mist
Clouds: Clear
Visibility: 5 miles , 8 km
2018/11/19 04:20 KFDK 190420Z AUTO 00000KT 5SM BR CLR 03/03 A3020 RMK AO2
 
KHGR - Hagerstown, Maryland, USA
Distance from station: NNE 30mi, 48km
Updated: 11/18/2018 10:53pm
Clear
Clear
 Wind from calm
Wind: Calm
Temperature: 43°F , 6°C
Dew Point: 37°F , 3°C
Humidity: 81%
Barometer: 30.14 inHg , 1020.7 hPa
Clouds: Clear
Visibility: 7 miles , 11 km
2018/11/19 03:53 KHGR 190353Z AUTO 00000KT 7SM CLR 06/03 A3014 RMK AO2 SLP221 T00610033
KIAD - Wash Dc/Dulles, Virginia, USA
Distance from station: SE 34mi, 55km
Updated: 11/18/2018 10:52pm
Overcast
Overcast
 Wind from SSE
Wind: SSE 5 mph , 7 km/h
Temperature: 39°F , 4°C
Wind Chill: 35°F , 2°C
Dew Point: 39°F , 4°C
Humidity: 100%
Barometer: 30.19 inHg , 1022.4 hPa
Clouds: Overcast
Visibility: 10 miles , 16 km
Cloud details: Mostly cloudy 17000 ft
Overcast 24000 ft
2018/11/19 03:52 KIAD 190352Z 16004KT 10SM BKN170 OVC240 04/04 A3019 RMK AO2 SLP223 T00440039
 
KRSP - Nsf Thurmont, Maryland, USA
Distance from station: NE 34mi, 55km
Updated: 11/15/2018 8:54am
NOT Current
Snow, Freezing, Fog, Overcast
Snow, Freezing, Fog, Overcast
 Wind from ESE
Wind: ESE 9 mph , 15 km/h, Gust: 17 mph , 28 km/h
Temperature: 23°F , -5°C
Wind Chill: 13°F , -11°C
Dew Point: 21°F , -6°C
Humidity: 93%
Barometer: 30.45 inHg , 1031.2 hPa
Summary: Snow, Freezing, Fog
Clouds: Overcast
Visibility: 1/4 mile , 2 km
Cloud details: Overcast 500 ft
2018/11/15 13:54 KRSP 151354Z AUTO 11008G15KT 1/4SM SN FZFG VV005 M05/M06 A3045 RMK AO2 SLP340 P0018 T10501056 $
KGAI - Gaithersburg, Maryland, USA
Distance from station: E 40mi, 64km
Updated: 11/18/2018 10:56pm
Clear
Clear
 Wind from calm
Wind: Calm
Temperature: 37°F , 3°C
Dew Point: 36°F , 2°C
Humidity: 93%
Barometer: 30.19 inHg , 1022.4 hPa
Clouds: Clear
Visibility: 9 miles , 14 km
2018/11/19 03:56 KGAI 190356Z AUTO 00000KT 9SM CLR 03/02 A3019 RMK AO2 SLP254 T00330022
 
KRYT - Fountain Dale, Pennsylvania, USA
Distance from station: NE 40mi, 64km
Updated: 11/13/2017 7:53am
NOT Current
Mist, Overcast
Mist, Overcast
 Wind from calm
Wind: Calm
Temperature: 37°F , 3°C
Dew Point: 34°F , 1°C
Humidity: 87%
Barometer: 30.31 inHg , 1026.4 hPa
Summary: Mist
Clouds: Overcast
Visibility: 5 miles , 8 km
Cloud details: Overcast 700 ft
2017/11/13 12:53 KRYT 131253Z AUTO 00000KT 5SM BR OVC007 03/01 A3031 RMK AO2 SLP275 T00280011 TSNO $
KHEF - Manassas Muni, Virginia, USA
Distance from station: SSE 44mi, 72km
Updated: 11/18/2018 10:56pm
Clear
Clear
 Wind from calm
Wind: Calm
Temperature: 37°F , 3°C
Dew Point: 36°F , 2°C
Humidity: 93%
Barometer: 30.20 inHg , 1022.7 hPa
Clouds: Clear
Visibility: 10 miles , 16 km
2018/11/19 03:56 KHEF 190356Z AUTO 00000KT 10SM CLR 03/02 A3020 RMK AO2 SLP238 T00280022 401061033 PNO $
 
KHWY - Warrenton, Virginia, USA
Distance from station: SSE 50mi, 80km
Updated: 11/18/2018 11:35pm
Mist, Clear
Mist, Clear
 Wind from calm
Wind: Calm
Temperature: 37°F , 3°C
Dew Point: 34°F , 1°C
Humidity: 87%
Barometer: 30.17 inHg , 1021.7 hPa
Summary: Mist
Clouds: Clear
Visibility: 5 miles , 8 km
2018/11/19 04:35 KHWY 190435Z AUTO 00000KT 5SM BR CLR 03/01 A3017 RMK AO2 T00250011